createdAt,value
2022-11-17T00:00:53.823Z,2.39
2022-11-17T00:01:57.164Z,2.39
2022-11-17T00:03:00.242Z,2.39
2022-11-17T00:04:03.131Z,2.37
2022-11-17T00:05:06.144Z,2.36
2022-11-17T00:06:09.051Z,2.37
2022-11-17T00:07:12.235Z,2.37
2022-11-17T00:08:15.252Z,2.36
2022-11-17T00:09:18.380Z,2.35
2022-11-17T00:10:21.352Z,2.35
2022-11-17T00:11:24.228Z,2.37
2022-11-17T00:12:46.272Z,2.37
2022-11-17T00:14:07.905Z,2.37
2022-11-17T00:15:10.801Z,2.36
2022-11-17T00:16:15.055Z,2.33
2022-11-17T00:17:17.944Z,2.32
2022-11-17T00:18:39.601Z,2.32
2022-11-17T00:20:01.345Z,2.33
2022-11-17T00:21:20.014Z,2.34
2022-11-17T00:22:23.374Z,2.34
2022-11-17T00:23:46.891Z,2.36
2022-11-17T00:24:50.362Z,2.38
2022-11-17T00:25:53.207Z,2.39
2022-11-17T00:27:02.169Z,2.39
2022-11-17T00:28:04.989Z,2.40
2022-11-17T00:29:08.058Z,2.42
2022-11-17T00:30:31.159Z,2.44
2022-11-17T00:31:53.159Z,2.47
2022-11-17T00:33:19.149Z,2.46
2022-11-17T00:34:23.549Z,2.48
2022-11-17T00:35:26.474Z,2.49
2022-11-17T00:36:29.324Z,2.51
2022-11-17T00:37:39.734Z,2.49
2022-11-17T00:38:42.630Z,2.47
2022-11-17T00:39:45.733Z,2.45
2022-11-17T00:40:48.568Z,2.46
2022-11-17T00:41:51.458Z,2.46
2022-11-17T00:42:54.502Z,2.48
2022-11-17T00:43:57.399Z,2.50
2022-11-17T00:45:00.493Z,2.51
2022-11-17T00:46:03.310Z,2.55
2022-11-17T00:47:06.206Z,2.56
2022-11-17T00:48:09.139Z,2.57
2022-11-17T00:49:12.379Z,2.57
2022-11-17T00:50:15.652Z,2.56
2022-11-17T00:51:19.005Z,2.56
2022-11-17T00:52:21.873Z,2.55
2022-11-17T00:53:24.779Z,2.55
2022-11-17T00:54:27.656Z,2.56
2022-11-17T00:55:30.824Z,2.58
2022-11-17T00:56:34.159Z,2.58
2022-11-17T00:57:36.997Z,2.58
2022-11-17T00:58:39.860Z,2.59
2022-11-17T00:59:43.205Z,2.58
2022-11-17T01:00:48.450Z,2.57
2022-11-17T01:01:51.618Z,2.56
2022-11-17T01:02:54.630Z,2.55
2022-11-17T01:04:05.425Z,2.55
2022-11-17T01:05:08.400Z,2.57
2022-11-17T01:06:12.862Z,2.56
2022-11-17T01:07:16.130Z,2.55
2022-11-17T01:08:19.269Z,2.55
2022-11-17T01:09:23.697Z,2.57
2022-11-17T01:10:26.593Z,2.56
2022-11-17T01:11:29.671Z,2.55
2022-11-17T01:12:32.592Z,2.54
2022-11-17T01:13:36.072Z,2.53
2022-11-17T01:14:39.359Z,2.54
2022-11-17T01:15:42.284Z,2.55
2022-11-17T01:16:45.766Z,2.54
2022-11-17T01:17:48.735Z,2.51
2022-11-17T01:18:52.094Z,2.47
2022-11-17T01:20:07.785Z,2.44
2022-11-17T01:21:32.561Z,2.42
2022-11-17T01:22:57.072Z,2.40
2022-11-17T01:24:23.121Z,2.36
2022-11-17T01:25:50.264Z,2.34
2022-11-17T01:27:15.899Z,2.33
2022-11-17T01:28:40.651Z,2.33
2022-11-17T01:30:06.294Z,2.33
2022-11-17T01:31:30.277Z,2.33
2022-11-17T01:32:37.969Z,2.34
2022-11-17T01:33:40.645Z,2.34
2022-11-17T01:34:43.386Z,2.35
2022-11-17T01:35:46.120Z,2.38
2022-11-17T01:37:21.092Z,2.39
2022-11-17T01:38:41.493Z,2.37
2022-11-17T01:40:05.318Z,2.36
2022-11-17T01:41:28.417Z,2.35
2022-11-17T01:42:57.148Z,2.34
2022-11-17T01:44:38.427Z,2.32
2022-11-17T01:48:27.672Z,2.28
2022-11-17T01:49:34.842Z,2.27
2022-11-17T01:50:39.348Z,2.27
2022-11-17T01:51:47.431Z,2.26
2022-11-17T01:52:51.087Z,2.25
2022-11-17T01:53:59.015Z,2.26
2022-11-17T01:55:07.070Z,2.25
2022-11-17T01:58:44.103Z,2.25
2022-11-17T01:59:49.421Z,2.25
2022-11-17T02:00:54.429Z,2.24
2022-11-17T02:01:58.273Z,2.24
2022-11-17T02:03:01.751Z,2.24
2022-11-17T02:04:04.731Z,2.25
2022-11-17T02:05:19.471Z,2.25
2022-11-17T02:06:28.744Z,2.26
2022-11-17T02:07:54.874Z,2.25
2022-11-17T02:09:17.602Z,2.25
2022-11-17T02:10:39.744Z,2.23
2022-11-17T02:12:08.639Z,2.23
2022-11-17T02:13:35.973Z,2.23
2022-11-17T02:14:58.552Z,2.23
2022-11-17T02:16:30.189Z,2.20
2022-11-17T02:17:52.466Z,2.17
2022-11-17T02:19:15.620Z,2.13
2022-11-17T02:23:13.531Z,2.12
2022-11-17T02:24:31.418Z,2.13
2022-11-17T02:25:43.204Z,2.15
2022-11-17T02:26:46.141Z,2.15
2022-11-17T02:28:07.672Z,2.13
2022-11-17T02:29:20.341Z,2.13
2022-11-17T02:31:53.520Z,2.14
2022-11-17T02:33:06.943Z,2.14
2022-11-17T02:34:28.644Z,2.14
2022-11-17T02:35:46.958Z,2.14
2022-11-17T02:36:55.763Z,2.15
2022-11-17T02:38:07.140Z,2.14
2022-11-17T02:39:12.477Z,2.13
2022-11-17T02:40:21.315Z,2.12
2022-11-17T02:41:29.014Z,2.12
2022-11-17T02:43:01.254Z,2.11
2022-11-17T02:44:16.223Z,2.12
2022-11-17T02:45:22.509Z,2.12
2022-11-17T02:46:25.854Z,2.10
2022-11-17T02:47:32.392Z,2.11
2022-11-17T02:48:38.293Z,2.12
2022-11-17T02:49:44.402Z,2.13
2022-11-17T02:50:47.844Z,2.13
2022-11-17T02:51:52.513Z,2.14
2022-11-17T02:52:55.777Z,2.16
2022-11-17T02:54:00.249Z,2.18
2022-11-17T02:55:05.638Z,2.19
2022-11-17T02:56:08.909Z,2.20
2022-11-17T02:57:27.977Z,2.22
2022-11-17T02:58:31.058Z,2.24
2022-11-17T02:59:41.459Z,2.24
2022-11-17T03:00:52.959Z,2.24
2022-11-17T03:02:05.131Z,2.23
2022-11-17T03:03:26.906Z,2.22
2022-11-17T03:04:32.104Z,2.22
2022-11-17T03:06:00.089Z,2.23
2022-11-17T03:07:03.192Z,2.24
2022-11-17T03:08:27.511Z,2.24
2022-11-17T03:09:38.873Z,2.24
2022-11-17T03:10:44.488Z,2.25
2022-11-17T03:12:01.426Z,2.26
2022-11-17T03:13:10.603Z,2.29
2022-11-17T03:14:42.623Z,2.29
2022-11-17T03:15:58.953Z,2.30
2022-11-17T03:17:06.976Z,2.31
2022-11-17T03:18:16.250Z,2.32
2022-11-17T03:19:23.085Z,2.32
2022-11-17T03:20:34.049Z,2.33
2022-11-17T03:21:57.124Z,2.32
2022-11-17T03:23:02.938Z,2.33
2022-11-17T03:24:23.945Z,2.33
2022-11-17T03:25:28.560Z,2.32
2022-11-17T03:26:34.467Z,2.28
2022-11-17T03:27:39.685Z,2.24
2022-11-17T03:28:45.287Z,2.22
2022-11-17T03:29:50.537Z,2.25
2022-11-17T03:30:54.110Z,2.26
2022-11-17T03:31:59.078Z,2.27
2022-11-17T03:33:05.353Z,2.29
2022-11-17T03:34:13.223Z,2.26
2022-11-17T03:35:18.813Z,2.23
2022-11-17T03:36:26.171Z,2.22
2022-11-17T03:37:31.349Z,2.23
2022-11-17T03:38:37.502Z,2.23
2022-11-17T03:39:42.235Z,2.25
2022-11-17T03:40:46.752Z,2.25
2022-11-17T03:41:52.252Z,2.25
2022-11-17T03:42:57.098Z,2.25
2022-11-17T03:44:01.309Z,2.25
2022-11-17T03:45:13.472Z,2.26
2022-11-17T03:46:18.216Z,2.27
2022-11-17T03:47:24.419Z,2.28
2022-11-17T03:48:46.153Z,2.29
2022-11-17T03:49:52.205Z,2.30
2022-11-17T03:50:55.050Z,2.28
2022-11-17T03:51:58.052Z,2.28
2022-11-17T03:53:02.828Z,2.28
2022-11-17T03:54:06.524Z,2.28
2022-11-17T03:55:09.686Z,2.27
2022-11-17T03:56:21.559Z,2.29
2022-11-17T03:57:27.044Z,2.30
2022-11-17T03:58:31.411Z,2.30
2022-11-17T03:59:49.355Z,2.28
2022-11-17T04:00:53.497Z,2.27
2022-11-17T04:01:56.555Z,2.26
2022-11-17T04:02:59.734Z,2.24
2022-11-17T04:04:02.747Z,2.23
2022-11-17T04:05:05.932Z,2.23
2022-11-17T04:06:08.894Z,2.22
2022-11-17T04:07:11.761Z,2.21
2022-11-17T04:08:14.796Z,2.20
2022-11-17T04:09:22.871Z,2.20
2022-11-17T04:10:27.176Z,2.21
2022-11-17T04:11:49.251Z,2.21
2022-11-17T04:13:11.446Z,2.22
2022-11-17T04:14:33.102Z,2.21
2022-11-17T04:15:54.531Z,2.20
2022-11-17T04:16:57.548Z,2.18
2022-11-17T04:18:00.446Z,2.19
2022-11-17T04:19:03.356Z,2.21
2022-11-17T04:20:06.779Z,2.22
2022-11-17T04:21:09.677Z,2.24
2022-11-17T04:22:12.532Z,2.25
2022-11-17T04:23:15.468Z,2.25
2022-11-17T04:24:18.559Z,2.26
2022-11-17T04:25:41.548Z,2.25
2022-11-17T04:27:02.753Z,2.24
2022-11-17T04:28:24.200Z,2.23
2022-11-17T04:29:28.470Z,2.22
2022-11-17T04:30:31.480Z,2.19
2022-11-17T04:31:34.379Z,2.17
2022-11-17T04:32:37.275Z,2.14
2022-11-17T04:33:46.395Z,2.12
2022-11-17T04:34:49.415Z,2.11
2022-11-17T04:35:52.414Z,2.10
2022-11-17T04:36:55.289Z,2.11
2022-11-17T04:37:58.277Z,2.13
2022-11-17T04:39:01.321Z,2.13
2022-11-17T04:40:04.493Z,2.14
2022-11-17T04:41:27.291Z,2.14
2022-11-17T04:42:30.306Z,2.13
2022-11-17T04:43:33.527Z,2.13
2022-11-17T04:44:36.667Z,2.14
2022-11-17T04:45:39.593Z,2.14
2022-11-17T04:46:44.623Z,2.13
2022-11-17T04:47:47.635Z,2.11
2022-11-17T04:48:52.002Z,2.09
2022-11-17T04:49:54.934Z,2.08
2022-11-17T04:50:57.837Z,2.07
2022-11-17T04:52:01.208Z,2.05
2022-11-17T04:53:04.115Z,2.05
2022-11-17T04:54:07.740Z,2.04
2022-11-17T04:55:10.613Z,2.04
2022-11-17T04:56:13.608Z,2.06
2022-11-17T04:57:16.607Z,2.06
2022-11-17T04:58:19.445Z,2.05
2022-11-17T04:59:22.412Z,2.05
2022-11-17T05:00:25.536Z,2.04
2022-11-17T05:01:28.969Z,2.03
2022-11-17T05:02:32.078Z,2.03
2022-11-17T05:03:35.169Z,2.05
2022-11-17T05:04:56.245Z,2.06
2022-11-17T05:05:59.239Z,2.08
2022-11-17T05:07:02.291Z,2.08
2022-11-17T05:08:05.422Z,2.08
2022-11-17T05:09:11.367Z,2.07
2022-11-17T05:10:15.084Z,2.06
2022-11-17T05:11:36.653Z,2.03
2022-11-17T05:12:58.033Z,2.00
2022-11-17T05:14:01.459Z,1.97
2022-11-17T05:15:04.581Z,1.95
2022-11-17T05:16:26.060Z,1.93
2022-11-17T05:17:29.056Z,1.90
2022-11-17T05:18:31.903Z,1.89
2022-11-17T05:19:42.344Z,1.85
2022-11-17T05:20:45.279Z,1.82
2022-11-17T05:21:48.421Z,1.78
2022-11-17T05:23:10.077Z,1.75
2022-11-17T05:24:14.442Z,1.70
2022-11-17T05:25:17.421Z,1.67
2022-11-17T05:26:21.769Z,1.65
2022-11-17T05:27:26.194Z,1.66
2022-11-17T05:28:31.079Z,1.66
2022-11-17T05:29:34.068Z,1.66
2022-11-17T05:30:37.027Z,1.67
2022-11-17T05:31:40.059Z,1.68
2022-11-17T05:32:42.997Z,1.68
2022-11-17T05:33:46.027Z,1.68
2022-11-17T05:34:48.894Z,1.68
2022-11-17T05:35:51.915Z,1.69
2022-11-17T05:36:54.757Z,1.68
2022-11-17T05:37:57.565Z,1.68
2022-11-17T05:39:00.821Z,1.69
2022-11-17T05:40:04.025Z,1.68
2022-11-17T05:41:07.248Z,1.69
2022-11-17T05:42:10.442Z,1.69
2022-11-17T05:43:13.336Z,1.71
2022-11-17T05:44:16.272Z,1.72
2022-11-17T05:45:19.271Z,1.71
2022-11-17T05:46:23.052Z,1.72
2022-11-17T05:47:25.986Z,1.73
2022-11-17T05:48:28.998Z,1.73
2022-11-17T05:49:31.878Z,1.73
2022-11-17T05:50:35.879Z,1.74
2022-11-17T05:51:38.813Z,1.74
2022-11-17T05:52:41.614Z,1.72
2022-11-17T05:53:44.515Z,1.72
2022-11-17T05:54:47.418Z,1.71
2022-11-17T05:55:50.425Z,1.71
2022-11-17T05:56:56.712Z,1.71
2022-11-17T05:58:06.641Z,1.72
2022-11-17T05:59:09.451Z,1.73
2022-11-17T06:00:15.204Z,1.75
2022-11-17T06:01:19.221Z,1.77
2022-11-17T06:02:25.057Z,1.78
2022-11-17T06:03:37.529Z,1.78
2022-11-17T06:04:40.834Z,1.78
2022-11-17T06:05:44.264Z,1.76
2022-11-17T06:06:47.817Z,1.76
2022-11-17T06:07:51.597Z,1.76
2022-11-17T06:08:54.416Z,1.76
2022-11-17T06:09:57.400Z,1.78
2022-11-17T06:11:00.489Z,1.78
2022-11-17T06:12:06.169Z,1.78
2022-11-17T06:13:09.701Z,1.79
2022-11-17T06:14:12.591Z,1.82
2022-11-17T06:15:15.473Z,1.82
2022-11-17T06:16:20.708Z,1.82
2022-11-17T06:17:29.831Z,1.80
2022-11-17T06:18:41.589Z,1.79
2022-11-17T06:19:46.847Z,1.77
2022-11-17T06:20:52.197Z,1.77
2022-11-17T06:22:11.519Z,1.78
2022-11-17T06:23:16.109Z,1.78
2022-11-17T06:24:19.909Z,1.79
2022-11-17T06:25:23.115Z,1.79
2022-11-17T06:26:26.379Z,1.79
2022-11-17T06:27:30.693Z,1.79
2022-11-17T06:28:34.510Z,1.79
2022-11-17T06:29:43.684Z,1.79
2022-11-17T06:30:47.740Z,1.80
2022-11-17T06:31:50.730Z,1.82
